Time;durP1;ratioP1;P1;durP2;ratioP2;P2;SDS_P1;SDS_P2;PMS_P1;PMS_P2;Temp;Humidity;BMP_temperature;BMP_pressure;BME280_temperature;BME280_humidity;BME280_pressure;Samples;Min_cycle;Max_cycle;Signal;HPM_P1;HPM_P2
2023/08/26 00:00:41;;;;;;;11.00;7.27;;;20.50;87.80;;;;;;5013347;28;20266;-73
2023/08/26 00:03:07;;;;;;;14.53;7.50;;;20.50;88.30;;;;;;5015354;28;20806;-73
2023/08/26 00:05:32;;;;;;;11.43;7.17;;;20.50;88.30;;;;;;5013881;28;20212;-73
2023/08/26 00:07:58;;;;;;;14.40;7.53;;;20.50;88.30;;;;;;5011938;28;20189;-73
2023/08/26 00:10:23;;;;;;;12.90;7.83;;;20.40;88.60;;;;;;5013080;28;20210;-73
2023/08/26 00:12:49;;;;;;;13.33;7.00;;;20.30;88.70;;;;;;5007005;28;20624;-74
2023/08/26 00:15:14;;;;;;;11.33;7.27;;;20.30;88.90;;;;;;5009271;28;20196;-74
2023/08/26 00:17:40;;;;;;;14.30;8.30;;;20.20;88.90;;;;;;5008501;28;20666;-75
2023/08/26 00:20:08;;;;;;;13.10;7.70;;;20.20;89.00;;;;;;5015770;28;20183;-74
2023/08/26 00:22:34;;;;;;;12.73;8.67;;;20.10;89.00;;;;;;5016428;28;20215;-74
2023/08/26 00:25:00;;;;;;;13.77;8.00;;;20.10;89.30;;;;;;5016974;28;20505;-73
2023/08/26 00:27:25;;;;;;;15.00;8.30;;;20.00;89.70;;;;;;5014039;28;20477;-74
2023/08/26 00:29:51;;;;;;;14.57;7.17;;;20.00;89.60;;;;;;5015864;28;20189;-73
2023/08/26 00:32:16;;;;;;;16.03;7.53;;;20.00;89.90;;;;;;5006974;28;20302;-74
2023/08/26 00:34:43;;;;;;;14.13;8.57;;;19.90;90.20;;;;;;5015199;28;20181;-73
2023/08/26 00:37:09;;;;;;;17.73;8.17;;;19.90;90.30;;;;;;5013698;28;20213;-73
2023/08/26 00:39:34;;;;;;;13.03;7.40;;;19.90;90.30;;;;;;5010177;28;20459;-74
2023/08/26 00:42:00;;;;;;;11.80;7.10;;;19.90;90.40;;;;;;5008637;28;20210;-73
2023/08/26 00:44:26;;;;;;;11.70;7.20;;;19.90;90.60;;;;;;5007629;28;20188;-73
2023/08/26 00:46:51;;;;;;;16.03;8.17;;;19.90;90.50;;;;;;5018383;28;20190;-74
2023/08/26 00:49:18;;;;;;;14.07;7.53;;;19.90;90.50;;;;;;5013925;28;20187;-73
2023/08/26 00:51:44;;;;;;;13.93;8.63;;;19.80;90.50;;;;;;5012775;28;20205;-72
2023/08/26 00:54:09;;;;;;;13.37;6.90;;;19.80;90.60;;;;;;5020635;28;20466;-74
2023/08/26 00:56:35;;;;;;;10.03;6.37;;;19.80;90.50;;;;;;5022696;28;20264;-72
2023/08/26 00:59:01;;;;;;;13.23;7.63;;;19.80;90.30;;;;;;5019634;28;20186;-74
2023/08/26 01:01:29;;;;;;;15.10;7.60;;;19.80;90.20;;;;;;5015851;28;20514;-74
2023/08/26 01:03:55;;;;;;;16.83;7.50;;;19.80;90.20;;;;;;5012122;28;20182;-74
2023/08/26 01:06:20;;;;;;;10.50;5.93;;;19.80;89.90;;;;;;5012777;28;20799;-74
2023/08/26 01:08:46;;;;;;;11.50;6.80;;;19.80;89.60;;;;;;5011237;28;20193;-73
2023/08/26 01:11:31;;;;;;;13.43;6.30;;;19.80;89.50;;;;;;5014890;28;20694;-73
2023/08/26 01:14:06;;;;;;;10.87;5.80;;;19.80;89.50;;;;;;5002571;28;20751;-73
2023/08/26 01:16:34;;;;;;;11.30;6.07;;;19.80;89.50;;;;;;5015124;28;20412;-72
2023/08/26 01:19:01;;;;;;;11.40;5.60;;;19.80;89.60;;;;;;5011685;28;20420;-72
2023/08/26 01:21:38;;;;;;;9.10;5.20;;;19.80;89.60;;;;;;5007042;28;20989;-72
2023/08/26 01:24:04;;;;;;;14.10;5.70;;;19.80;89.70;;;;;;5013246;28;20408;-73
2023/08/26 01:26:30;;;;;;;9.93;5.50;;;19.80;89.90;;;;;;5016038;28;20456;-73
2023/08/26 01:28:56;;;;;;;13.93;6.87;;;19.80;89.90;;;;;;5009708;28;20447;-72
2023/08/26 01:31:22;;;;;;;14.63;5.30;;;19.80;90.00;;;;;;5020124;28;20669;-74
2023/08/26 01:34:17;;;;;;;10.47;5.70;;;19.70;90.40;;;;;;5009458;28;20190;-72
2023/08/26 01:36:44;;;;;;;9.77;5.17;;;19.60;90.60;;;;;;5013278;28;20445;-74
2023/08/26 01:39:14;;;;;;;13.80;6.13;;;19.60;90.90;;;;;;5023023;28;20417;-74
2023/08/26 01:41:44;;;;;;;9.07;5.33;;;19.50;91.00;;;;;;5013603;28;20497;-74
2023/08/26 01:44:11;;;;;;;10.20;5.67;;;19.60;91.20;;;;;;5016110;28;20969;-73
2023/08/26 01:46:37;;;;;;;10.80;5.97;;;19.60;91.30;;;;;;5011558;28;20467;-73
2023/08/26 01:49:03;;;;;;;10.53;6.10;;;19.50;91.30;;;;;;5017219;28;20431;-72
2023/08/26 01:51:30;;;;;;;9.70;5.77;;;19.60;91.50;;;;;;5011394;28;20523;-72
2023/08/26 01:53:55;;;;;;;8.27;5.20;;;19.60;91.50;;;;;;5018333;28;20427;-73
2023/08/26 01:56:21;;;;;;;9.80;5.33;;;19.60;91.60;;;;;;5014441;28;20421;-74
2023/08/26 01:58:47;;;;;;;10.70;5.10;;;19.60;91.60;;;;;;5017739;28;20200;-73
2023/08/26 02:01:12;;;;;;;10.30;4.60;;;19.60;91.60;;;;;;5011184;28;20210;-74
2023/08/26 02:03:38;;;;;;;7.13;4.30;;;19.70;91.70;;;;;;5026051;28;20262;-73
2023/08/26 02:06:03;;;;;;;11.00;5.40;;;19.70;91.60;;;;;;5018721;28;20216;-73
2023/08/26 02:08:29;;;;;;;7.43;4.60;;;19.70;91.40;;;;;;5023624;28;20722;-74
2023/08/26 02:10:55;;;;;;;7.33;5.27;;;19.60;91.30;;;;;;5012694;28;20749;-74
2023/08/26 02:13:21;;;;;;;9.40;4.40;;;19.60;91.30;;;;;;5014430;28;20266;-73
2023/08/26 02:15:47;;;;;;;6.17;4.37;;;19.70;91.30;;;;;;5014483;28;20504;-73
2023/08/26 02:18:12;;;;;;;7.70;5.53;;;19.70;91.30;;;;;;5015899;28;20187;-74
2023/08/26 02:20:42;;;;;;;6.93;4.53;;;19.70;91.30;;;;;;5013004;28;20280;-74
2023/08/26 02:23:08;;;;;;;7.90;5.00;;;19.80;91.30;;;;;;5014838;28;20197;-73
2023/08/26 02:25:33;;;;;;;10.33;4.87;;;19.70;91.30;;;;;;5012702;28;20472;-73
2023/08/26 02:27:59;;;;;;;7.53;4.67;;;19.80;91.30;;;;;;5018404;28;20190;-75
2023/08/26 02:30:24;;;;;;;9.00;4.83;;;19.80;91.10;;;;;;5021438;28;20567;-73
2023/08/26 02:32:50;;;;;;;8.70;4.70;;;19.70;90.90;;;;;;5018762;28;20227;-73
2023/08/26 02:35:15;;;;;;;8.90;5.60;;;19.80;90.90;;;;;;5018338;28;20197;-73
2023/08/26 02:37:41;;;;;;;12.53;5.13;;;19.80;90.80;;;;;;5010026;28;20175;-73
2023/08/26 02:40:07;;;;;;;6.13;4.50;;;19.70;90.70;;;;;;5014763;28;20325;-74
2023/08/26 02:42:34;;;;;;;12.07;6.60;;;19.80;90.40;;;;;;5015580;28;20231;-74
2023/08/26 02:45:00;;;;;;;13.37;5.73;;;19.70;90.20;;;;;;5016986;28;20580;-72
2023/08/26 02:47:26;;;;;;;11.40;6.43;;;19.80;90.10;;;;;;5014059;28;21439;-73
2023/08/26 02:49:51;;;;;;;11.90;6.00;;;19.80;89.90;;;;;;5022057;28;20481;-73
2023/08/26 02:52:17;;;;;;;9.77;5.40;;;19.80;89.50;;;;;;5016847;28;20261;-73
2023/08/26 02:54:43;;;;;;;9.13;5.30;;;19.90;89.00;;;;;;5020635;28;20907;-72
2023/08/26 02:57:08;;;;;;;9.77;5.27;;;20.00;88.70;;;;;;5011203;28;20170;-72
2023/08/26 02:59:34;;;;;;;10.83;6.30;;;20.00;88.70;;;;;;5021409;28;20663;-71
2023/08/26 03:02:03;;;;;;;8.03;5.07;;;20.00;88.90;;;;;;5010929;28;20214;-72
2023/08/26 03:04:29;;;;;;;9.77;5.87;;;20.10;88.90;;;;;;5015549;28;20182;-72
2023/08/26 03:06:55;;;;;;;10.27;5.60;;;20.10;89.00;;;;;;5018231;28;20478;-72
2023/08/26 03:09:20;;;;;;;12.60;5.37;;;20.10;89.30;;;;;;5014977;28;20453;-73
2023/08/26 03:11:46;;;;;;;9.60;4.83;;;20.00;89.30;;;;;;5008276;28;20216;-73
2023/08/26 03:14:12;;;;;;;12.83;4.90;;;20.10;89.20;;;;;;5013172;28;20179;-73
2023/08/26 03:16:39;;;;;;;7.30;5.23;;;20.00;88.90;;;;;;5011244;28;20185;-72
2023/08/26 03:19:04;;;;;;;7.40;3.80;;;20.00;88.90;;;;;;5020194;28;20616;-74
2023/08/26 03:21:31;;;;;;;10.77;5.30;;;20.00;88.90;;;;;;5015763;28;20462;-73
2023/08/26 03:23:57;;;;;;;9.90;4.30;;;20.00;88.70;;;;;;5014323;28;20187;-72
2023/08/26 03:26:23;;;;;;;7.17;4.40;;;20.00;88.90;;;;;;5015909;28;20516;-74
2023/08/26 03:28:49;;;;;;;5.90;4.53;;;20.00;88.90;;;;;;5011590;28;20644;-71
2023/08/26 03:31:14;;;;;;;7.57;5.20;;;20.00;89.00;;;;;;5015859;28;20207;-74
2023/08/26 03:33:40;;;;;;;11.30;5.10;;;20.00;89.00;;;;;;5015869;28;20421;-72
2023/08/26 03:36:06;;;;;;;13.40;5.90;;;20.00;88.90;;;;;;5017213;28;20185;-72
2023/08/26 03:38:34;;;;;;;7.27;4.40;;;20.00;88.40;;;;;;5015443;28;20190;-72
2023/08/26 03:41:03;;;;;;;8.80;5.10;;;20.00;88.00;;;;;;5013680;28;20876;-73
2023/08/26 03:43:29;;;;;;;9.07;5.37;;;19.90;87.70;;;;;;5013642;28;20449;-74
2023/08/26 03:45:54;;;;;;;11.33;5.67;;;19.90;87.60;;;;;;5016243;28;20476;-74
2023/08/26 03:48:20;;;;;;;9.33;5.73;;;19.90;88.00;;;;;;5016803;28;20187;-73
2023/08/26 03:50:53;;;;;;;14.47;5.50;;;19.90;87.80;;;;;;5018754;28;20233;-72
2023/08/26 03:53:18;;;;;;;8.07;4.67;;;19.90;87.80;;;;;;5010120;28;20179;-73
2023/08/26 03:55:45;;;;;;;10.90;4.97;;;19.90;87.80;;;;;;5015312;28;20980;-73
2023/08/26 03:58:11;;;;;;;9.57;6.37;;;19.90;88.00;;;;;;5012426;28;20182;-73
2023/08/26 04:00:37;;;;;;;9.20;6.00;;;19.90;87.80;;;;;;5002938;28;20464;-72
2023/08/26 04:03:04;;;;;;;9.90;5.93;;;19.90;87.80;;;;;;5011848;28;20501;-73
2023/08/26 04:05:31;;;;;;;9.67;5.40;;;19.80;88.00;;;;;;5024236;28;20546;-73
2023/08/26 04:07:57;;;;;;;8.53;5.13;;;19.90;88.60;;;;;;5003455;28;20453;-71
2023/08/26 04:10:23;;;;;;;10.40;6.03;;;19.90;88.60;;;;;;5009860;28;20544;-73
2023/08/26 04:12:48;;;;;;;9.80;5.80;;;19.80;88.70;;;;;;5015299;28;20537;-72
2023/08/26 04:15:14;;;;;;;10.17;5.63;;;19.80;88.70;;;;;;5025807;28;20221;-72
2023/08/26 04:17:41;;;;;;;9.47;4.93;;;19.80;88.40;;;;;;5020412;28;20364;-74
2023/08/26 04:20:07;;;;;;;9.37;5.57;;;19.70;88.60;;;;;;5017491;28;20417;-72
2023/08/26 04:22:33;;;;;;;9.43;5.73;;;19.60;88.60;;;;;;5014692;28;20414;-74
2023/08/26 04:24:59;;;;;;;11.33;5.13;;;19.60;88.70;;;;;;5011018;28;20981;-71
2023/08/26 04:27:24;;;;;;;12.77;5.30;;;19.50;88.70;;;;;;5016361;28;20728;-74
2023/08/26 04:29:50;;;;;;;8.50;5.40;;;19.60;88.90;;;;;;5016792;28;20435;-73
2023/08/26 04:32:17;;;;;;;11.77;6.13;;;19.60;88.90;;;;;;5015664;28;20221;-73
2023/08/26 04:34:43;;;;;;;10.53;5.20;;;19.60;88.00;;;;;;5020735;28;20565;-73
2023/08/26 04:37:09;;;;;;;8.27;5.30;;;19.50;87.00;;;;;;5012531;28;20445;-72
2023/08/26 04:39:34;;;;;;;8.90;5.00;;;19.60;85.70;;;;;;5009945;28;20185;-73
2023/08/26 04:42:01;;;;;;;10.20;5.70;;;19.70;86.30;;;;;;5009913;28;20226;-73
2023/08/26 04:44:26;;;;;;;10.93;5.27;;;19.70;86.80;;;;;;5016784;28;20189;-72
2023/08/26 04:46:53;;;;;;;9.10;5.63;;;19.70;86.80;;;;;;5012136;28;20424;-73
2023/08/26 04:49:19;;;;;;;13.50;5.70;;;19.70;86.60;;;;;;5013695;28;20177;-73
2023/08/26 04:51:52;;;;;;;9.47;4.70;;;19.70;86.20;;;;;;5007948;28;20763;-73
2023/08/26 04:54:18;;;;;;;8.90;5.63;;;19.70;85.50;;;;;;5007390;28;20182;-73
2023/08/26 04:56:44;;;;;;;12.33;5.47;;;19.80;85.00;;;;;;5012496;28;20424;-73
2023/08/26 04:59:09;;;;;;;10.70;6.27;;;19.80;83.70;;;;;;5009243;28;20192;-73
2023/08/26 05:01:35;;;;;;;10.10;5.67;;;19.80;83.60;;;;;;5014452;28;20209;-73
2023/08/26 05:04:00;;;;;;;10.37;5.57;;;19.80;83.00;;;;;;5018505;28;20559;-73
2023/08/26 05:06:26;;;;;;;8.37;5.60;;;19.80;83.00;;;;;;5017133;28;20241;-73
2023/08/26 05:08:52;;;;;;;7.50;5.00;;;19.80;82.70;;;;;;5014361;28;20203;-73
2023/08/26 05:11:17;;;;;;;9.30;5.63;;;19.90;83.30;;;;;;5014636;28;20209;-74
2023/08/26 05:13:43;;;;;;;8.80;5.50;;;19.80;83.60;;;;;;5022347;28;20185;-72
2023/08/26 05:16:08;;;;;;;10.33;5.70;;;19.90;84.30;;;;;;5020422;28;20182;-74
2023/08/26 05:18:34;;;;;;;13.20;6.23;;;19.80;84.40;;;;;;5023339;28;20658;-73
2023/08/26 05:21:00;;;;;;;12.97;5.90;;;19.70;84.60;;;;;;5015077;28;20209;-73
2023/08/26 05:23:26;;;;;;;12.53;6.20;;;19.70;84.70;;;;;;5023258;28;20193;-73
2023/08/26 05:25:52;;;;;;;16.30;5.83;;;19.70;84.90;;;;;;5029172;28;20463;-72
2023/08/26 05:28:17;;;;;;;8.23;5.37;;;19.80;85.50;;;;;;5030154;28;20196;-73
2023/08/26 05:30:43;;;;;;;7.87;5.13;;;19.80;84.30;;;;;;5017654;28;20620;-72
2023/08/26 05:33:08;;;;;;;11.17;5.90;;;19.80;83.70;;;;;;5021831;28;20221;-72
2023/08/26 05:35:34;;;;;;;10.57;6.00;;;19.80;83.10;;;;;;5022818;28;20189;-72
2023/08/26 05:37:59;;;;;;;7.50;5.00;;;19.90;82.80;;;;;;5018539;28;20191;-73
2023/08/26 05:40:29;;;;;;;9.23;5.47;;;19.90;82.50;;;;;;5011507;28;20214;-74
2023/08/26 05:42:58;;;;;;;13.50;5.97;;;19.90;82.70;;;;;;5016089;28;20186;-73
2023/08/26 05:45:24;;;;;;;9.20;5.80;;;20.00;83.10;;;;;;5019714;28;20487;-73
2023/08/26 05:47:51;;;;;;;11.80;5.77;;;20.00;83.70;;;;;;5021659;28;20421;-71
2023/08/26 05:50:16;;;;;;;10.10;5.87;;;20.00;84.00;;;;;;5010392;28;20453;-72
2023/08/26 05:52:42;;;;;;;11.77;6.03;;;19.90;83.60;;;;;;5026590;28;20425;-72
2023/08/26 05:55:09;;;;;;;14.33;5.77;;;19.90;83.00;;;;;;5018174;28;20245;-73
2023/08/26 05:57:35;;;;;;;13.80;6.17;;;19.90;83.10;;;;;;5025739;28;20201;-72
2023/08/26 06:00:01;;;;;;;11.57;5.43;;;20.00;83.10;;;;;;5013901;28;20809;-73
2023/08/26 06:02:26;;;;;;;9.93;5.57;;;20.00;83.60;;;;;;5022584;28;20187;-73
2023/08/26 06:04:52;;;;;;;10.53;5.33;;;20.10;84.00;;;;;;5017401;28;20574;-72
2023/08/26 06:07:18;;;;;;;9.33;5.87;;;20.10;83.60;;;;;;5027018;28;20309;-72
2023/08/26 06:09:43;;;;;;;8.30;5.17;;;20.10;82.20;;;;;;5019082;28;20183;-73
2023/08/26 06:12:09;;;;;;;10.60;5.60;;;20.20;81.90;;;;;;5014671;28;20215;-73
2023/08/26 06:14:35;;;;;;;11.27;5.70;;;20.30;81.90;;;;;;5017704;28;20633;-73
2023/08/26 06:17:00;;;;;;;14.57;6.23;;;20.30;82.10;;;;;;5015182;28;20213;-72
2023/08/26 06:19:26;;;;;;;9.00;5.33;;;20.30;81.70;;;;;;5015378;28;20186;-73
2023/08/26 06:21:52;;;;;;;12.60;6.10;;;20.30;82.40;;;;;;5016736;28;20202;-73
2023/08/26 06:24:17;;;;;;;13.03;5.50;;;20.30;83.00;;;;;;5017640;28;20178;-73
2023/08/26 06:26:44;;;;;;;11.63;5.83;;;20.30;82.50;;;;;;5015622;28;20466;-72
2023/08/26 06:29:13;;;;;;;7.93;5.40;;;20.20;82.40;;;;;;5015617;28;20191;-71
2023/08/26 06:31:39;;;;;;;11.53;5.77;;;20.20;83.00;;;;;;5011970;28;20856;-71
2023/08/26 06:34:04;;;;;;;15.73;6.13;;;20.30;82.80;;;;;;5022270;28;20474;-73
2023/08/26 06:36:30;;;;;;;10.97;5.60;;;20.30;81.90;;;;;;5020764;28;20184;-72
2023/08/26 06:38:55;;;;;;;8.43;5.50;;;20.40;81.70;;;;;;5024132;28;20194;-74
2023/08/26 06:41:21;;;;;;;12.70;5.50;;;20.50;82.40;;;;;;5006631;28;20206;-72
2023/08/26 06:43:46;;;;;;;10.70;5.60;;;20.60;81.70;;;;;;5019972;28;20291;-72
2023/08/26 06:46:13;;;;;;;10.67;5.80;;;20.70;80.20;;;;;;5011535;28;20298;-73
2023/08/26 06:48:39;;;;;;;11.27;6.03;;;20.80;79.20;;;;;;5023239;28;20218;-72
2023/08/26 06:51:05;;;;;;;8.27;5.30;;;20.90;78.40;;;;;;5016219;28;20476;-73
2023/08/26 06:53:31;;;;;;;7.40;4.80;;;20.90;77.80;;;;;;5022792;28;20187;-73
2023/08/26 06:55:56;;;;;;;8.77;4.90;;;21.10;77.70;;;;;;5006959;28;20957;-73
2023/08/26 06:58:23;;;;;;;9.93;4.80;;;21.10;76.80;;;;;;5010901;28;20191;-73
2023/08/26 07:00:49;;;;;;;9.60;5.30;;;21.20;76.40;;;;;;5011185;28;20290;-73
2023/08/26 07:03:15;;;;;;;11.00;5.70;;;21.20;76.40;;;;;;5020228;28;20502;-72
2023/08/26 07:05:45;;;;;;;9.33;5.57;;;21.20;76.70;;;;;;5015754;28;20212;-72
2023/08/26 07:08:11;;;;;;;13.40;6.00;;;21.30;76.80;;;;;;5019582;28;20424;-73
2023/08/26 07:10:36;;;;;;;14.93;5.63;;;21.30;76.80;;;;;;5017351;28;20462;-72
2023/08/26 07:13:02;;;;;;;10.90;5.30;;;21.30;76.10;;;;;;5022728;28;20655;-72
2023/08/26 07:15:27;;;;;;;15.63;6.20;;;21.30;76.40;;;;;;5021269;28;20279;-72
2023/08/26 07:17:54;;;;;;;10.63;5.77;;;21.30;76.10;;;;;;5027587;28;20180;-72
2023/08/26 07:20:20;;;;;;;10.33;5.10;;;21.20;76.50;;;;;;5009939;28;20242;-73
2023/08/26 07:22:46;;;;;;;10.17;5.10;;;21.10;76.80;;;;;;5019281;28;20436;-73
2023/08/26 07:25:12;;;;;;;8.83;4.80;;;21.00;76.20;;;;;;5014711;28;20506;-74
2023/08/26 07:27:38;;;;;;;11.97;4.60;;;21.00;76.50;;;;;;5023358;28;20463;-72
2023/08/26 07:30:04;;;;;;;8.70;4.97;;;21.00;75.70;;;;;;5019260;28;20600;-71
2023/08/26 07:32:30;;;;;;;11.43;5.93;;;21.10;76.10;;;;;;5020215;28;20673;-73
2023/08/26 07:34:57;;;;;;;7.33;4.33;;;21.10;75.80;;;;;;5018700;28;20441;-72
2023/08/26 07:37:23;;;;;;;6.77;4.67;;;21.30;75.40;;;;;;5011338;28;20258;-74
2023/08/26 07:39:49;;;;;;;9.97;5.20;;;21.50;74.30;;;;;;5023007;28;20429;-73
2023/08/26 07:42:16;;;;;;;9.17;4.80;;;21.40;74.30;;;;;;5013185;28;20216;-73
2023/08/26 07:44:42;;;;;;;8.03;4.50;;;21.30;74.80;;;;;;5019081;28;20418;-73
2023/08/26 07:47:07;;;;;;;7.63;4.70;;;21.60;74.80;;;;;;5026159;28;20427;-74
2023/08/26 07:49:33;;;;;;;7.33;4.23;;;21.90;73.90;;;;;;5030098;28;20587;-73
2023/08/26 07:51:58;;;;;;;9.80;4.90;;;22.20;72.90;;;;;;5018186;28;20210;-73
2023/08/26 07:54:24;;;;;;;9.50;4.47;;;22.20;72.60;;;;;;5023601;28;20941;-74
2023/08/26 07:56:50;;;;;;;10.33;4.90;;;22.00;73.60;;;;;;5014091;28;20192;-74
2023/08/26 07:59:16;;;;;;;10.40;4.50;;;22.30;73.20;;;;;;5019683;28;20439;-73
2023/08/26 08:01:41;;;;;;;11.43;4.90;;;22.30;72.70;;;;;;5012304;28;20204;-75
2023/08/26 08:04:07;;;;;;;7.80;4.80;;;22.20;71.30;;;;;;5018586;28;20189;-73
2023/08/26 08:06:33;;;;;;;10.63;5.40;;;22.20;71.80;;;;;;5021120;28;20234;-72
2023/08/26 08:08:58;;;;;;;8.80;4.80;;;22.30;71.70;;;;;;5014482;28;20866;-74
2023/08/26 08:11:24;;;;;;;11.53;5.33;;;22.10;71.80;;;;;;5011492;28;20228;-73
2023/08/26 08:13:50;;;;;;;7.83;4.23;;;22.30;72.30;;;;;;5019512;28;20220;-73
2023/08/26 08:16:16;;;;;;;9.17;5.17;;;22.50;72.40;;;;;;5014895;28;20200;-73
2023/08/26 08:18:41;;;;;;;12.00;6.40;;;22.50;71.00;;;;;;5003433;28;20411;-75
2023/08/26 08:21:08;;;;;;;7.90;5.37;;;22.30;71.30;;;;;;5010568;28;20263;-71
2023/08/26 08:23:35;;;;;;;10.77;5.90;;;21.90;71.40;;;;;;5012206;28;20196;-73
2023/08/26 08:26:00;;;;;;;8.80;5.50;;;21.70;72.70;;;;;;5010428;28;20475;-72
2023/08/26 08:28:26;;;;;;;12.13;5.83;;;21.50;72.70;;;;;;5016647;28;20424;-73
2023/08/26 08:30:51;;;;;;;8.67;5.67;;;21.50;73.00;;;;;;5008483;28;20213;-72
2023/08/26 08:33:17;;;;;;;11.40;6.33;;;21.30;73.00;;;;;;5012558;28;20204;-72
2023/08/26 08:35:44;;;;;;;8.33;5.60;;;21.30;73.70;;;;;;5013455;28;20661;-73
2023/08/26 08:38:09;;;;;;;7.70;5.33;;;21.40;74.00;;;;;;5016368;28;20192;-71
2023/08/26 08:40:37;;;;;;;11.30;4.70;;;21.50;73.60;;;;;;5008228;28;20459;-72
2023/08/26 08:43:05;;;;;;;8.60;5.57;;;21.80;73.30;;;;;;5005687;28;20185;-74
2023/08/26 08:45:31;;;;;;;8.60;5.73;;;22.10;71.80;;;;;;5018898;28;20470;-72
2023/08/26 08:47:58;;;;;;;10.33;5.30;;;22.00;71.80;;;;;;5025130;28;20423;-73
2023/08/26 08:50:25;;;;;;;13.90;6.33;;;22.20;72.00;;;;;;5017183;28;20525;-71
2023/08/26 08:52:55;;;;;;;10.70;5.57;;;21.90;71.30;;;;;;5017959;28;20427;-73
2023/08/26 08:55:22;;;;;;;17.70;5.97;;;21.70;71.80;;;;;;5025551;28;20411;-72
2023/08/26 08:57:50;;;;;;;9.80;5.60;;;21.80;72.00;;;;;;5017745;28;20523;-72
2023/08/26 09:00:17;;;;;;;9.37;5.47;;;21.50;72.00;;;;;;5010387;28;21131;-73
2023/08/26 09:02:46;;;;;;;12.53;6.57;;;21.30;72.40;;;;;;5008556;28;20424;-73
2023/08/26 09:05:12;;;;;;;10.37;5.77;;;21.40;72.40;;;;;;5020741;28;20490;-73
2023/08/26 09:07:40;;;;;;;10.20;5.67;;;21.50;72.70;;;;;;5007550;28;20482;-72
2023/08/26 09:10:08;;;;;;;7.10;4.87;;;21.90;72.60;;;;;;5015829;28;20416;-72
2023/08/26 09:12:34;;;;;;;7.27;4.70;;;22.20;72.00;;;;;;5015378;28;20420;-73
2023/08/26 09:14:59;;;;;;;10.07;5.87;;;22.60;70.80;;;;;;5021656;28;20940;-73
2023/08/26 09:17:25;;;;;;;8.53;5.27;;;22.60;69.70;;;;;;5007676;28;20212;-73
2023/08/26 09:19:55;;;;;;;12.23;5.57;;;22.50;69.80;;;;;;5015139;28;20269;-74
2023/08/26 09:22:26;;;;;;;12.20;6.13;;;22.50;70.10;;;;;;5016816;28;20189;-73
2023/08/26 09:24:56;;;;;;;9.63;5.23;;;22.20;70.10;;;;;;5017016;28;20419;-74
2023/08/26 09:27:22;;;;;;;8.60;5.40;;;22.40;71.10;;;;;;5013358;28;20482;-72
2023/08/26 09:29:47;;;;;;;9.73;6.10;;;22.70;69.80;;;;;;5014908;28;20424;-73
2023/08/26 09:32:13;;;;;;;8.73;5.27;;;22.90;69.40;;;;;;5008892;28;20767;-71
2023/08/26 09:34:39;;;;;;;8.83;5.90;;;23.10;68.90;;;;;;5010612;28;20270;-72
2023/08/26 09:37:08;;;;;;;14.63;6.07;;;23.20;69.10;;;;;;5010863;28;20183;-73
2023/08/26 09:39:45;;;;;;;7.77;5.53;;;23.30;68.60;;;;;;5016472;28;20753;-72
2023/08/26 09:42:11;;;;;;;10.20;5.30;;;23.50;68.50;;;;;;5010662;28;20477;-72
2023/08/26 09:44:36;;;;;;;9.27;5.40;;;23.60;67.90;;;;;;5019305;28;20450;-73
2023/08/26 09:47:03;;;;;;;11.23;6.20;;;23.60;67.70;;;;;;5021388;28;20245;-72
2023/08/26 09:49:28;;;;;;;10.70;6.47;;;23.10;67.70;;;;;;5017402;28;20188;-74
2023/08/26 09:51:54;;;;;;;11.30;5.37;;;22.80;68.60;;;;;;5020534;28;20535;-74
2023/08/26 09:54:21;;;;;;;10.60;6.13;;;22.60;69.40;;;;;;5013708;28;20192;-74
2023/08/26 09:56:48;;;;;;;7.67;5.87;;;22.70;69.40;;;;;;5022777;28;20441;-72
2023/08/26 09:59:14;;;;;;;9.80;5.70;;;22.40;69.70;;;;;;5018149;28;20426;-73
2023/08/26 10:01:41;;;;;;;16.00;8.07;;;22.50;70.20;;;;;;5014488;28;20468;-72
2023/08/26 10:04:12;;;;;;;18.13;8.60;;;22.40;71.00;;;;;;5015162;28;20432;-73
2023/08/26 10:06:42;;;;;;;12.60;7.77;;;21.50;73.70;;;;;;5020901;28;20528;-73
2023/08/26 10:09:19;;;;;;;11.10;7.23;;;21.30;74.80;;;;;;5013388;28;20521;-74
2023/08/26 10:11:48;;;;;;;11.57;7.10;;;21.20;74.90;;;;;;5018849;28;20457;-74
2023/08/26 10:14:14;;;;;;;12.83;7.80;;;21.20;74.60;;;;;;5014544;28;20459;-73
2023/08/26 10:16:42;;;;;;;11.73;7.20;;;21.20;74.80;;;;;;5019272;28;20854;-71
2023/08/26 10:19:08;;;;;;;12.20;6.57;;;21.10;75.20;;;;;;5016432;28;20923;-73
2023/08/26 10:21:34;;;;;;;12.47;7.33;;;21.20;74.80;;;;;;5017227;28;20478;-73
2023/08/26 10:24:01;;;;;;;9.33;5.87;;;21.10;74.50;;;;;;5025406;28;20186;-73
2023/08/26 10:26:27;;;;;;;10.10;6.90;;;21.20;74.30;;;;;;5017345;28;20474;-73
2023/08/26 10:28:56;;;;;;;10.73;6.90;;;21.30;73.70;;;;;;5033756;28;20426;-73
2023/08/26 10:31:33;;;;;;;11.70;6.33;;;21.40;73.90;;;;;;5011189;28;20487;-73
2023/08/26 10:34:13;;;;;;;10.17;6.17;;;21.40;73.90;;;;;;5024896;28;20431;-74
2023/08/26 10:36:41;;;;;;;8.07;5.80;;;21.50;73.30;;;;;;5022443;28;20417;-74
2023/08/26 10:39:18;;;;;;;9.37;6.53;;;21.40;72.70;;;;;;5028421;28;20475;-72
2023/08/26 10:42:14;;;;;;;13.67;6.63;;;21.20;72.70;;;;;;5014127;28;20911;-73
2023/08/26 10:44:42;;;;;;;14.00;6.80;;;21.00;73.50;;;;;;5020156;28;20442;-73
2023/08/26 10:47:08;;;;;;;12.93;6.87;;;21.20;73.70;;;;;;5014534;28;20423;-75
2023/08/26 10:49:36;;;;;;;10.57;5.63;;;21.20;73.20;;;;;;5017050;28;20493;-74
2023/08/26 10:52:12;;;;;;;14.00;5.80;;;21.20;73.30;;;;;;5015713;28;20207;-74
2023/08/26 10:54:37;;;;;;;12.87;6.57;;;21.10;73.30;;;;;;5017590;28;20432;-75
2023/08/26 10:57:07;;;;;;;10.17;6.63;;;21.20;73.50;;;;;;5019724;28;20450;-74
2023/08/26 10:59:45;;;;;;;7.83;6.33;;;21.30;73.30;;;;;;5014026;28;20204;-76
2023/08/26 11:02:14;;;;;;;11.23;7.13;;;21.40;73.20;;;;;;5015117;28;20468;-74
2023/08/26 11:04:44;;;;;;;8.80;6.00;;;21.60;72.40;;;;;;5018998;28;20444;-74
2023/08/26 11:07:20;;;;;;;10.20;6.10;;;21.50;73.00;;;;;;5022110;28;20415;-75
2023/08/26 11:09:46;;;;;;;11.37;5.77;;;21.70;72.60;;;;;;5020051;28;20426;-75
2023/08/26 11:12:25;;;;;;;10.77;6.00;;;21.70;72.00;;;;;;5016827;28;20463;-76
2023/08/26 11:14:50;;;;;;;11.10;6.53;;;22.00;71.60;;;;;;5020059;28;20854;-75
2023/08/26 11:17:17;;;;;;;14.47;5.60;;;22.10;70.80;;;;;;5012606;28;20428;-74
2023/08/26 11:19:43;;;;;;;9.23;5.87;;;22.20;70.70;;;;;;5022149;28;20192;-75
2023/08/26 11:22:09;;;;;;;9.90;6.60;;;22.40;70.40;;;;;;5016356;28;20487;-74
2023/08/26 11:24:34;;;;;;;10.17;6.10;;;22.50;69.70;;;;;;5019363;28;20541;-75
2023/08/26 11:27:00;;;;;;;13.47;6.63;;;22.50;69.80;;;;;;5019679;28;20219;-74
2023/08/26 11:29:26;;;;;;;10.10;7.37;;;22.10;70.20;;;;;;5021938;28;20192;-78
2023/08/26 11:31:52;;;;;;;10.13;6.63;;;21.70;71.30;;;;;;5015190;28;20824;-75
2023/08/26 11:34:23;;;;;;;11.73;5.53;;;21.60;71.70;;;;;;5022487;28;20632;-75
2023/08/26 11:36:51;;;;;;;13.30;8.37;;;21.50;72.10;;;;;;5015987;28;20291;-73
2023/08/26 11:39:18;;;;;;;9.13;6.27;;;21.50;72.00;;;;;;5023835;28;20431;-74
2023/08/26 11:41:43;;;;;;;9.33;6.27;;;21.50;72.00;;;;;;4999787;28;20505;-74
2023/08/26 11:44:15;;;;;;;11.93;6.07;;;21.40;72.10;;;;;;5021482;28;20878;-74
2023/08/26 11:46:43;;;;;;;12.70;6.37;;;21.50;72.40;;;;;;5006969;28;20596;-74
2023/08/26 11:49:11;;;;;;;11.73;6.20;;;21.40;72.10;;;;;;5019123;28;20939;-73
2023/08/26 11:51:39;;;;;;;10.27;6.00;;;21.50;72.70;;;;;;5007776;28;20907;-76
2023/08/26 11:54:06;;;;;;;11.23;6.37;;;21.70;72.70;;;;;;5002380;28;20443;-75
2023/08/26 11:56:31;;;;;;;8.80;5.97;;;21.80;71.40;;;;;;5012013;28;20432;-76
2023/08/26 11:58:57;;;;;;;12.53;6.10;;;21.80;71.30;;;;;;5014047;28;20867;-76
2023/08/26 12:01:25;;;;;;;12.00;6.80;;;21.90;71.10;;;;;;5008013;28;20266;-74
2023/08/26 12:03:50;;;;;;;9.53;6.50;;;21.60;71.70;;;;;;5005290;28;20245;-75
2023/08/26 12:06:18;;;;;;;11.03;6.50;;;21.50;73.00;;;;;;5011543;28;20475;-74
2023/08/26 12:08:51;;;;;;;8.47;6.20;;;21.30;72.90;;;;;;5020078;28;20207;-75
2023/08/26 12:11:17;;;;;;;12.37;7.30;;;21.10;73.60;;;;;;5018876;28;20450;-74
2023/08/26 12:13:42;;;;;;;12.00;6.37;;;21.00;73.50;;;;;;5018221;28;20514;-73
2023/08/26 12:16:09;;;;;;;13.70;7.40;;;21.00;74.20;;;;;;5020990;28;20192;-75
2023/08/26 12:18:35;;;;;;;11.40;7.70;;;20.80;74.90;;;;;;5008896;28;20193;-75
2023/08/26 12:21:01;;;;;;;11.47;6.97;;;20.70;75.70;;;;;;5010867;28;20473;-74
2023/08/26 12:23:26;;;;;;;13.93;7.90;;;20.80;75.80;;;;;;5011334;28;20191;-74
2023/08/26 12:25:52;;;;;;;16.23;8.30;;;20.80;75.70;;;;;;5016046;28;20212;-74
2023/08/26 12:28:22;;;;;;;12.30;7.73;;;20.70;76.80;;;;;;5016413;28;20202;-76
2023/08/26 12:30:47;;;;;;;13.33;7.40;;;20.70;77.30;;;;;;5012923;28;20207;-72
2023/08/26 12:33:16;;;;;;;9.47;7.27;;;20.60;77.00;;;;;;5015427;28;20603;-74
2023/08/26 12:35:43;;;;;;;16.30;10.60;;;20.60;77.10;;;;;;5010966;28;20270;-74
2023/08/26 12:38:09;;;;;;;14.57;9.50;;;20.40;77.80;;;;;;5009751;28;20469;-72